6B0

Middlebury State Airport

Middlebury, Vermont, USA
METAR K6B0 161215Z AUTO 00000KT 10SM CLR M04/M05 A3017 RMK AO2 T10411048
Observed Flight Rules
Dec-16 @ 12:15 UTC (34 minutes ago) Visual Flight Rules
Visibility Clouds
10 miles
  • Clear skies
Temperatures Readings
Current -4°C / 25°F
Dewpoint -5°C / 23°F
Humidity 93%
Altimeter 30.17" Hg
Pressure 1022 hPa
Elevation 149
METAR K6B0 161215Z AUTO 00000KT 10SM CLR M04/M05 A3017 RMK AO2 T10411048
Observed Flight Rules
Dec-16 @ 12:15 UTC
(34 minutes ago)
VFR
Clouds
  • Clear skies
Temperature Dewpoint
-4°C / 25°F -5°C / 23°F
Humidity Altimeter Pressure
93% 30.17" Hg 1022 hPa